sensor_id;sensor_type;location;lat;lon;timestamp;temperature;humidity
19561;DHT22;9927;47.792;10.616;2024-01-15T04:01:29;0.60;99.90
19561;DHT22;9927;47.792;10.616;2024-01-15T04:03:57;0.70;99.90
19561;DHT22;9927;47.792;10.616;2024-01-15T04:06:24;0.80;99.90
19561;DHT22;9927;47.792;10.616;2024-01-15T04:08:51;0.80;99.90
19561;DHT22;9927;47.792;10.616;2024-01-15T04:11:18;0.80;99.90
19561;DHT22;9927;47.792;10.616;2024-01-15T04:13:46;0.70;99.90
19561;DHT22;9927;47.792;10.616;2024-01-15T04:16:13;0.70;99.90
19561;DHT22;9927;47.792;10.616;2024-01-15T04:18:40;0.80;99.90
19561;DHT22;9927;47.792;10.616;2024-01-15T04:21:07;0.80;99.90
19561;DHT22;9927;47.792;10.616;2024-01-15T04:23:35;0.80;99.90
19561;DHT22;9927;47.792;10.616;2024-01-15T04:26:02;0.80;99.90
19561;DHT22;9927;47.792;10.616;2024-01-15T04:28:29;0.70;99.90
19561;DHT22;9927;47.792;10.616;2024-01-15T04:30:56;0.70;99.90
19561;DHT22;9927;47.792;10.616;2024-01-15T04:33:24;0.70;99.90
19561;DHT22;9927;47.792;10.616;2024-01-15T04:35:51;0.60;99.90
19561;DHT22;9927;47.792;10.616;2024-01-15T04:38:19;0.70;99.90
19561;DHT22;9927;47.792;10.616;2024-01-15T04:40:46;0.60;99.90
19561;DHT22;9927;47.792;10.616;2024-01-15T04:43:13;0.40;99.90
19561;DHT22;9927;47.792;10.616;2024-01-15T04:45:40;0.30;99.90
19561;DHT22;9927;47.792;10.616;2024-01-15T04:48:08;0.20;99.90
19561;DHT22;9927;47.792;10.616;2024-01-15T04:50:35;0.20;99.90
19561;DHT22;9927;47.792;10.616;2024-01-15T04:53:02;0.20;99.90
19561;DHT22;9927;47.792;10.616;2024-01-15T04:55:30;0.20;99.90
19561;DHT22;9927;47.792;10.616;2024-01-15T04:57:57;0.20;99.90
19561;DHT22;9927;47.792;10.616;2024-01-15T05:00:24;0.30;99.90
19561;DHT22;9927;47.792;10.616;2024-01-15T05:02:51;0.40;99.90
19561;DHT22;9927;47.792;10.616;2024-01-15T05:05:18;0.20;99.90
19561;DHT22;9927;47.792;10.616;2024-01-15T05:07:46;0.10;99.90
19561;DHT22;9927;47.792;10.616;2024-01-15T05:10:13;0.00;99.90
19561;DHT22;9927;47.792;10.616;2024-01-15T05:12:40;0.10;99.90
19561;DHT22;9927;47.792;10.616;2024-01-15T05:15:08;0.10;99.90
19561;DHT22;9927;47.792;10.616;2024-01-15T05:17:36;-0.10;99.90
19561;DHT22;9927;47.792;10.616;2024-01-15T05:20:04;-0.10;99.90
19561;DHT22;9927;47.792;10.616;2024-01-15T05:22:32;-0.10;99.90
19561;DHT22;9927;47.792;10.616;2024-01-15T05:24:59;0.00;99.90
19561;DHT22;9927;47.792;10.616;2024-01-15T05:27:26;-0.10;99.90
19561;DHT22;9927;47.792;10.616;2024-01-15T05:29:54;-0.10;99.90
19561;DHT22;9927;47.792;10.616;2024-01-15T05:32:21;-0.10;99.90
19561;DHT22;9927;47.792;10.616;2024-01-15T05:34:48;-0.10;99.90
19561;DHT22;9927;47.792;10.616;2024-01-15T05:37:16;-0.20;99.90
19561;DHT22;9927;47.792;10.616;2024-01-15T05:39:43;-0.20;99.90
19561;DHT22;9927;47.792;10.616;2024-01-15T05:42:10;-0.20;99.90
19561;DHT22;9927;47.792;10.616;2024-01-15T05:44:38;-0.10;99.90
19561;DHT22;9927;47.792;10.616;2024-01-15T05:47:05;-0.10;99.90
19561;DHT22;9927;47.792;10.616;2024-01-15T05:49:33;-0.10;99.90
19561;DHT22;9927;47.792;10.616;2024-01-15T05:52:00;0.00;99.90
19561;DHT22;9927;47.792;10.616;2024-01-15T05:54:27;0.00;99.90
19561;DHT22;9927;47.792;10.616;2024-01-15T05:56:55;0.00;99.90
19561;DHT22;9927;47.792;10.616;2024-01-15T05:59:22;0.00;99.90
19561;DHT22;9927;47.792;10.616;2024-01-15T06:01:49;0.00;99.90
19561;DHT22;9927;47.792;10.616;2024-01-15T06:04:17;0.00;99.90
19561;DHT22;9927;47.792;10.616;2024-01-15T06:06:45;0.00;99.90
19561;DHT22;9927;47.792;10.616;2024-01-15T06:09:12;0.00;99.90
19561;DHT22;9927;47.792;10.616;2024-01-15T06:11:39;0.00;99.90
19561;DHT22;9927;47.792;10.616;2024-01-15T06:14:07;0.00;99.90
19561;DHT22;9927;47.792;10.616;2024-01-15T06:16:34;0.00;99.90
19561;DHT22;9927;47.792;10.616;2024-01-15T06:19:01;0.00;99.90
19561;DHT22;9927;47.792;10.616;2024-01-15T06:21:29;0.00;99.90
19561;DHT22;9927;47.792;10.616;2024-01-15T06:23:56;-0.10;99.90
19561;DHT22;9927;47.792;10.616;2024-01-15T06:26:23;0.00;99.90
19561;DHT22;9927;47.792;10.616;2024-01-15T06:28:50;0.00;99.90
19561;DHT22;9927;47.792;10.616;2024-01-15T06:31:18;0.00;99.90
19561;DHT22;9927;47.792;10.616;2024-01-15T06:33:45;0.00;99.90
19561;DHT22;9927;47.792;10.616;2024-01-15T06:36:15;0.10;99.90
19561;DHT22;9927;47.792;10.616;2024-01-15T06:38:43;0.10;99.90
19561;DHT22;9927;47.792;10.616;2024-01-15T06:41:11;0.10;99.90
19561;DHT22;9927;47.792;10.616;2024-01-15T06:43:39;0.10;99.90
19561;DHT22;9927;47.792;10.616;2024-01-15T06:46:06;0.00;99.90
19561;DHT22;9927;47.792;10.616;2024-01-15T06:48:35;0.10;99.90
19561;DHT22;9927;47.792;10.616;2024-01-15T06:51:03;0.10;99.90
19561;DHT22;9927;47.792;10.616;2024-01-15T06:53:30;0.10;99.90
19561;DHT22;9927;47.792;10.616;2024-01-15T06:55:57;0.10;99.90
19561;DHT22;9927;47.792;10.616;2024-01-15T06:58:24;0.10;99.90
19561;DHT22;9927;47.792;10.616;2024-01-15T07:00:52;0.10;99.90
19561;DHT22;9927;47.792;10.616;2024-01-15T07:03:19;0.20;99.90
19561;DHT22;9927;47.792;10.616;2024-01-15T07:05:46;0.20;99.90
19561;DHT22;9927;47.792;10.616;2024-01-15T07:08:14;0.10;99.90
19561;DHT22;9927;47.792;10.616;2024-01-15T07:10:41;0.10;99.90
19561;DHT22;9927;47.792;10.616;2024-01-15T07:13:09;0.10;99.90
19561;DHT22;9927;47.792;10.616;2024-01-15T07:15:36;0.20;99.90
19561;DHT22;9927;47.792;10.616;2024-01-15T07:18:03;0.20;99.90
19561;DHT22;9927;47.792;10.616;2024-01-15T07:20:31;0.20;99.90
19561;DHT22;9927;47.792;10.616;2024-01-15T07:22:58;0.30;99.90
19561;DHT22;9927;47.792;10.616;2024-01-15T07:25:25;0.30;99.90
19561;DHT22;9927;47.792;10.616;2024-01-15T07:27:53;0.30;99.90
19561;DHT22;9927;47.792;10.616;2024-01-15T07:30:21;0.30;99.90
19561;DHT22;9927;47.792;10.616;2024-01-15T07:32:49;0.30;99.90
19561;DHT22;9927;47.792;10.616;2024-01-15T07:35:16;0.30;99.90
19561;DHT22;9927;47.792;10.616;2024-01-15T07:37:44;0.30;99.90
19561;DHT22;9927;47.792;10.616;2024-01-15T07:40:11;0.30;99.90
19561;DHT22;9927;47.792;10.616;2024-01-15T07:42:39;0.40;99.90
19561;DHT22;9927;47.792;10.616;2024-01-15T07:45:07;0.40;99.90
19561;DHT22;9927;47.792;10.616;2024-01-15T07:47:34;0.30;99.90
19561;DHT22;9927;47.792;10.616;2024-01-15T07:50:02;0.30;99.90
19561;DHT22;9927;47.792;10.616;2024-01-15T07:52:32;0.30;99.90
19561;DHT22;9927;47.792;10.616;2024-01-15T07:54:59;0.30;99.90
19561;DHT22;9927;47.792;10.616;2024-01-15T07:57:27;0.40;99.90
19561;DHT22;9927;47.792;10.616;2024-01-15T07:59:54;0.40;99.90
19561;DHT22;9927;47.792;10.616;2024-01-15T08:02:22;0.40;99.90
19561;DHT22;9927;47.792;10.616;2024-01-15T08:04:49;0.40;99.90
19561;DHT22;9927;47.792;10.616;2024-01-15T08:07:20;0.40;99.90
19561;DHT22;9927;47.792;10.616;2024-01-15T08:09:48;0.40;99.90
19561;DHT22;9927;47.792;10.616;2024-01-15T08:12:16;0.40;99.90
19561;DHT22;9927;47.792;10.616;2024-01-15T08:14:43;0.50;99.90
19561;DHT22;9927;47.792;10.616;2024-01-15T08:17:10;0.50;99.90
19561;DHT22;9927;47.792;10.616;2024-01-15T08:19:38;0.50;99.90
19561;DHT22;9927;47.792;10.616;2024-01-15T08:22:08;0.40;99.90
19561;DHT22;9927;47.792;10.616;2024-01-15T08:24:37;0.50;99.90
19561;DHT22;9927;47.792;10.616;2024-01-15T08:27:04;0.50;99.90
19561;DHT22;9927;47.792;10.616;2024-01-15T08:29:31;0.60;99.90
19561;DHT22;9927;47.792;10.616;2024-01-15T08:32:00;0.60;99.90
19561;DHT22;9927;47.792;10.616;2024-01-15T08:34:28;0.70;99.90
19561;DHT22;9927;47.792;10.616;2024-01-15T08:36:58;0.60;99.90
19561;DHT22;9927;47.792;10.616;2024-01-15T08:39:25;0.60;99.90
19561;DHT22;9927;47.792;10.616;2024-01-15T08:41:52;0.60;99.90
19561;DHT22;9927;47.792;10.616;2024-01-15T08:44:20;0.60;99.90
19561;DHT22;9927;47.792;10.616;2024-01-15T08:46:47;0.60;99.90
19561;DHT22;9927;47.792;10.616;2024-01-15T08:49:14;0.50;99.90
19561;DHT22;9927;47.792;10.616;2024-01-15T08:51:41;0.70;99.90
19561;DHT22;9927;47.792;10.616;2024-01-15T08:54:09;0.60;99.90
19561;DHT22;9927;47.792;10.616;2024-01-15T08:56:36;0.60;99.90
19561;DHT22;9927;47.792;10.616;2024-01-15T08:59:04;0.70;99.90
19561;DHT22;9927;47.792;10.616;2024-01-15T09:01:31;0.70;99.90
19561;DHT22;9927;47.792;10.616;2024-01-15T09:03:58;0.70;99.90
19561;DHT22;9927;47.792;10.616;2024-01-15T09:06:26;0.60;99.90
19561;DHT22;9927;47.792;10.616;2024-01-15T09:08:53;0.60;99.90
19561;DHT22;9927;47.792;10.616;2024-01-15T09:11:20;0.60;99.90
19561;DHT22;9927;47.792;10.616;2024-01-15T09:13:48;0.70;99.90
19561;DHT22;9927;47.792;10.616;2024-01-15T09:16:15;0.70;99.90
19561;DHT22;9927;47.792;10.616;2024-01-15T09:18:42;0.70;99.90
19561;DHT22;9927;47.792;10.616;2024-01-15T09:21:10;0.60;99.90
19561;DHT22;9927;47.792;10.616;2024-01-15T09:23:38;0.60;99.90
19561;DHT22;9927;47.792;10.616;2024-01-15T09:26:08;0.80;99.90
19561;DHT22;9927;47.792;10.616;2024-01-15T09:28:36;0.60;99.90
19561;DHT22;9927;47.792;10.616;2024-01-15T09:31:03;0.70;99.90
19561;DHT22;9927;47.792;10.616;2024-01-15T09:33:30;0.60;99.90
19561;DHT22;9927;47.792;10.616;2024-01-15T09:36:02;0.70;99.90
19561;DHT22;9927;47.792;10.616;2024-01-15T09:38:31;0.70;99.90
19561;DHT22;9927;47.792;10.616;2024-01-15T09:40:58;0.80;99.90
19561;DHT22;9927;47.792;10.616;2024-01-15T09:43:26;0.80;99.90
19561;DHT22;9927;47.792;10.616;2024-01-15T09:45:54;0.80;99.90
19561;DHT22;9927;47.792;10.616;2024-01-15T09:48:22;0.80;99.90
19561;DHT22;9927;47.792;10.616;2024-01-15T09:50:50;0.60;99.90
19561;DHT22;9927;47.792;10.616;2024-01-15T09:53:17;0.70;99.90
19561;DHT22;9927;47.792;10.616;2024-01-15T09:55:46;0.60;99.90
19561;DHT22;9927;47.792;10.616;2024-01-15T09:58:14;0.70;99.90
19561;DHT22;9927;47.792;10.616;2024-01-15T10:00:44;0.70;99.90
19561;DHT22;9927;47.792;10.616;2024-01-15T10:03:12;0.70;99.90
19561;DHT22;9927;47.792;10.616;2024-01-15T10:05:40;0.80;99.90
19561;DHT22;9927;47.792;10.616;2024-01-15T10:08:07;0.70;99.90
19561;DHT22;9927;47.792;10.616;2024-01-15T10:10:36;0.80;99.90
19561;DHT22;9927;47.792;10.616;2024-01-15T10:13:04;0.80;99.90
19561;DHT22;9927;47.792;10.616;2024-01-15T10:15:34;0.70;99.90
19561;DHT22;9927;47.792;10.616;2024-01-15T10:18:04;0.70;99.90
19561;DHT22;9927;47.792;10.616;2024-01-15T10:20:34;0.80;99.90
19561;DHT22;9927;47.792;10.616;2024-01-15T10:23:01;0.70;99.90
19561;DHT22;9927;47.792;10.616;2024-01-15T10:25:30;0.70;99.90
19561;DHT22;9927;47.792;10.616;2024-01-15T10:28:00;0.60;99.90
19561;DHT22;9927;47.792;10.616;2024-01-15T10:30:28;0.60;99.90
19561;DHT22;9927;47.792;10.616;2024-01-15T10:33:02;0.60;99.90
19561;DHT22;9927;47.792;10.616;2024-01-15T10:35:34;0.60;99.90
19561;DHT22;9927;47.792;10.616;2024-01-15T10:38:01;0.70;99.90
19561;DHT22;9927;47.792;10.616;2024-01-15T10:40:30;0.70;99.90
19561;DHT22;9927;47.792;10.616;2024-01-15T10:42:57;0.80;99.90
19561;DHT22;9927;47.792;10.616;2024-01-15T10:45:25;0.80;99.90
19561;DHT22;9927;47.792;10.616;2024-01-15T10:47:54;0.90;99.90
19561;DHT22;9927;47.792;10.616;2024-01-15T10:50:21;1.00;99.90
19561;DHT22;9927;47.792;10.616;2024-01-15T10:52:52;1.10;99.90
19561;DHT22;9927;47.792;10.616;2024-01-15T10:55:20;1.10;99.90
19561;DHT22;9927;47.792;10.616;2024-01-15T10:57:48;1.20;99.90
19561;DHT22;9927;47.792;10.616;2024-01-15T11:00:16;1.10;99.90
19561;DHT22;9927;47.792;10.616;2024-01-15T11:02:45;1.30;99.90
19561;DHT22;9927;47.792;10.616;2024-01-15T11:05:12;1.30;99.90
19561;DHT22;9927;47.792;10.616;2024-01-15T11:07:40;1.10;99.90
19561;DHT22;9927;47.792;10.616;2024-01-15T11:10:38;1.10;99.90
19561;DHT22;9927;47.792;10.616;2024-01-15T11:13:05;1.10;99.90
19561;DHT22;9927;47.792;10.616;2024-01-15T11:16:07;1.30;99.90
19561;DHT22;9927;47.792;10.616;2024-01-15T11:18:38;1.10;99.90
19561;DHT22;9927;47.792;10.616;2024-01-15T11:23:58;1.10;99.90
19561;DHT22;9927;47.792;10.616;2024-01-15T11:26:43;1.00;99.90
19561;DHT22;9927;47.792;10.616;2024-01-15T11:32:01;1.10;99.90
19561;DHT22;9927;47.792;10.616;2024-01-15T11:34:57;1.10;99.90
19561;DHT22;9927;47.792;10.616;2024-01-15T11:37:28;1.30;99.90
19561;DHT22;9927;47.792;10.616;2024-01-15T11:40:01;1.20;99.90
19561;DHT22;9927;47.792;10.616;2024-01-15T11:42:31;1.20;99.90
19561;DHT22;9927;47.792;10.616;2024-01-15T11:44:58;1.20;99.90
19561;DHT22;9927;47.792;10.616;2024-01-15T11:50:14;1.40;99.90
19561;DHT22;9927;47.792;10.616;2024-01-15T11:52:47;1.40;99.90
19561;DHT22;9927;47.792;10.616;2024-01-15T11:55:28;1.20;99.90
19561;DHT22;9927;47.792;10.616;2024-01-15T11:57:57;1.30;99.90
19561;DHT22;9927;47.792;10.616;2024-01-15T12:00:28;1.40;99.90
19561;DHT22;9927;47.792;10.616;2024-01-15T12:02:58;1.30;99.90
19561;DHT22;9927;47.792;10.616;2024-01-15T12:05:26;1.30;99.90
19561;DHT22;9927;47.792;10.616;2024-01-15T12:07:53;1.30;99.90
19561;DHT22;9927;47.792;10.616;2024-01-15T12:10:21;1.30;99.90
19561;DHT22;9927;47.792;10.616;2024-01-15T12:15:18;1.10;99.90
19561;DHT22;9927;47.792;10.616;2024-01-15T12:17:46;1.50;99.90
19561;DHT22;9927;47.792;10.616;2024-01-15T12:20:14;1.50;99.90
19561;DHT22;9927;47.792;10.616;2024-01-15T12:22:42;1.40;99.90
19561;DHT22;9927;47.792;10.616;2024-01-15T12:25:27;1.70;99.90
19561;DHT22;9927;47.792;10.616;2024-01-15T12:27:54;1.80;99.90
19561;DHT22;9927;47.792;10.616;2024-01-15T12:30:22;1.70;99.90
19561;DHT22;9927;47.792;10.616;2024-01-15T12:32:50;1.70;99.90
19561;DHT22;9927;47.792;10.616;2024-01-15T12:35:17;1.70;99.90
19561;DHT22;9927;47.792;10.616;2024-01-15T12:37:44;1.50;99.90
19561;DHT22;9927;47.792;10.616;2024-01-15T12:40:19;1.40;99.90
19561;DHT22;9927;47.792;10.616;2024-01-15T12:42:47;1.40;99.90
19561;DHT22;9927;47.792;10.616;2024-01-15T12:45:14;1.50;99.90
19561;DHT22;9927;47.792;10.616;2024-01-15T12:47:42;1.50;99.90
19561;DHT22;9927;47.792;10.616;2024-01-15T12:50:11;1.50;99.90
19561;DHT22;9927;47.792;10.616;2024-01-15T12:52:46;1.50;99.90
19561;DHT22;9927;47.792;10.616;2024-01-15T12:55:14;1.40;99.90
19561;DHT22;9927;47.792;10.616;2024-01-15T12:57:42;1.30;99.90
19561;DHT22;9927;47.792;10.616;2024-01-15T13:00:10;1.30;99.90
19561;DHT22;9927;47.792;10.616;2024-01-15T13:02:43;1.40;99.90
19561;DHT22;9927;47.792;10.616;2024-01-15T13:05:11;1.50;99.90
19561;DHT22;9927;47.792;10.616;2024-01-15T13:07:41;1.30;99.90
19561;DHT22;9927;47.792;10.616;2024-01-15T13:10:10;1.40;99.90
19561;DHT22;9927;47.792;10.616;2024-01-15T13:12:38;1.50;99.90
19561;DHT22;9927;47.792;10.616;2024-01-15T13:15:06;1.50;99.90
19561;DHT22;9927;47.792;10.616;2024-01-15T13:17:39;1.60;99.90
19561;DHT22;9927;47.792;10.616;2024-01-15T13:20:07;1.50;99.90
19561;DHT22;9927;47.792;10.616;2024-01-15T13:22:36;1.50;99.90
19561;DHT22;9927;47.792;10.616;2024-01-15T13:25:06;1.40;99.90
19561;DHT22;9927;47.792;10.616;2024-01-15T13:27:35;1.40;99.90
19561;DHT22;9927;47.792;10.616;2024-01-15T13:30:03;1.50;99.90
19561;DHT22;9927;47.792;10.616;2024-01-15T13:32:31;1.50;99.90
19561;DHT22;9927;47.792;10.616;2024-01-15T13:34:59;1.50;99.90
19561;DHT22;9927;47.792;10.616;2024-01-15T13:37:27;1.40;99.90
19561;DHT22;9927;47.792;10.616;2024-01-15T13:39:55;1.30;99.90
19561;DHT22;9927;47.792;10.616;2024-01-15T13:42:23;1.30;99.90
19561;DHT22;9927;47.792;10.616;2024-01-15T13:44:51;1.30;99.90
19561;DHT22;9927;47.792;10.616;2024-01-15T13:47:19;1.30;99.90
19561;DHT22;9927;47.792;10.616;2024-01-15T13:49:46;1.20;99.90
19561;DHT22;9927;47.792;10.616;2024-01-15T13:52:13;1.30;99.90
19561;DHT22;9927;47.792;10.616;2024-01-15T13:54:40;1.30;99.90
19561;DHT22;9927;47.792;10.616;2024-01-15T13:57:17;1.30;99.90
19561;DHT22;9927;47.792;10.616;2024-01-15T13:59:45;1.20;99.90
19561;DHT22;9927;47.792;10.616;2024-01-15T14:02:13;1.10;99.90
19561;DHT22;9927;47.792;10.616;2024-01-15T14:04:47;1.20;99.90
19561;DHT22;9927;47.792;10.616;2024-01-15T14:07:15;1.20;99.90
19561;DHT22;9927;47.792;10.616;2024-01-15T14:09:43;1.20;99.90
19561;DHT22;9927;47.792;10.616;2024-01-15T14:12:10;1.20;99.90
19561;DHT22;9927;47.792;10.616;2024-01-15T14:14:38;1.20;99.90
19561;DHT22;9927;47.792;10.616;2024-01-15T14:17:07;1.20;99.90
19561;DHT22;9927;47.792;10.616;2024-01-15T14:19:34;1.20;99.90
19561;DHT22;9927;47.792;10.616;2024-01-15T14:22:03;1.20;99.90
19561;DHT22;9927;47.792;10.616;2024-01-15T14:24:30;1.10;99.90
19561;DHT22;9927;47.792;10.616;2024-01-15T14:26:58;1.10;99.90
19561;DHT22;9927;47.792;10.616;2024-01-15T14:29:25;1.00;99.90
19561;DHT22;9927;47.792;10.616;2024-01-15T14:31:55;1.00;99.90
19561;DHT22;9927;47.792;10.616;2024-01-15T14:34:22;1.10;99.90
19561;DHT22;9927;47.792;10.616;2024-01-15T14:36:52;0.90;99.90
19561;DHT22;9927;47.792;10.616;2024-01-15T14:39:22;1.00;99.90
19561;DHT22;9927;47.792;10.616;2024-01-15T14:41:49;1.00;99.90
19561;DHT22;9927;47.792;10.616;2024-01-15T14:44:17;1.00;99.90
19561;DHT22;9927;47.792;10.616;2024-01-15T14:46:44;1.00;99.90
19561;DHT22;9927;47.792;10.616;2024-01-15T14:49:13;0.90;99.90
19561;DHT22;9927;47.792;10.616;2024-01-15T14:51:41;1.10;99.90
19561;DHT22;9927;47.792;10.616;2024-01-15T14:54:09;1.00;99.90
19561;DHT22;9927;47.792;10.616;2024-01-15T14:56:37;1.00;99.90
19561;DHT22;9927;47.792;10.616;2024-01-15T14:59:04;0.90;99.90
19561;DHT22;9927;47.792;10.616;2024-01-15T15:01:31;1.00;99.90
19561;DHT22;9927;47.792;10.616;2024-01-15T15:03:59;1.00;99.90
19561;DHT22;9927;47.792;10.616;2024-01-15T15:06:26;0.90;99.90
19561;DHT22;9927;47.792;10.616;2024-01-15T15:08:55;0.90;99.90
19561;DHT22;9927;47.792;10.616;2024-01-15T15:11:28;1.00;99.90
19561;DHT22;9927;47.792;10.616;2024-01-15T15:13:55;0.90;99.90
19561;DHT22;9927;47.792;10.616;2024-01-15T15:16:22;1.00;99.90
19561;DHT22;9927;47.792;10.616;2024-01-15T15:18:50;0.80;99.90
19561;DHT22;9927;47.792;10.616;2024-01-15T15:21:17;0.90;99.90
19561;DHT22;9927;47.792;10.616;2024-01-15T15:23:45;0.90;99.90
19561;DHT22;9927;47.792;10.616;2024-01-15T15:26:14;1.00;99.90
19561;DHT22;9927;47.792;10.616;2024-01-15T15:28:42;0.90;99.90
19561;DHT22;9927;47.792;10.616;2024-01-15T15:31:09;0.90;99.90
19561;DHT22;9927;47.792;10.616;2024-01-15T15:33:39;0.80;99.90
19561;DHT22;9927;47.792;10.616;2024-01-15T15:36:06;0.80;99.90
19561;DHT22;9927;47.792;10.616;2024-01-15T15:38:34;0.80;99.90
19561;DHT22;9927;47.792;10.616;2024-01-15T15:41:01;0.80;99.90
19561;DHT22;9927;47.792;10.616;2024-01-15T15:43:29;0.90;99.90
19561;DHT22;9927;47.792;10.616;2024-01-15T15:45:56;0.80;99.90
19561;DHT22;9927;47.792;10.616;2024-01-15T15:48:27;0.90;99.90
19561;DHT22;9927;47.792;10.616;2024-01-15T15:50:54;0.90;99.90
19561;DHT22;9927;47.792;10.616;2024-01-15T15:53:26;0.90;99.90
19561;DHT22;9927;47.792;10.616;2024-01-15T15:55:54;0.90;99.90
19561;DHT22;9927;47.792;10.616;2024-01-15T15:58:21;0.90;99.90
19561;DHT22;9927;47.792;10.616;2024-01-15T16:00:48;0.90;99.90
19561;DHT22;9927;47.792;10.616;2024-01-15T16:03:16;0.90;99.90
19561;DHT22;9927;47.792;10.616;2024-01-15T16:05:43;0.80;99.90
19561;DHT22;9927;47.792;10.616;2024-01-15T16:08:20;0.80;99.90
19561;DHT22;9927;47.792;10.616;2024-01-15T16:10:47;0.90;99.90
19561;DHT22;9927;47.792;10.616;2024-01-15T16:13:16;0.90;99.90
19561;DHT22;9927;47.792;10.616;2024-01-15T16:15:43;0.90;99.90
19561;DHT22;9927;47.792;10.616;2024-01-15T16:18:10;0.90;99.90
19561;DHT22;9927;47.792;10.616;2024-01-15T16:20:57;0.90;99.90
19561;DHT22;9927;47.792;10.616;2024-01-15T16:23:45;0.90;99.90
19561;DHT22;9927;47.792;10.616;2024-01-15T16:26:32;0.90;99.90
19561;DHT22;9927;47.792;10.616;2024-01-15T16:29:00;0.80;99.90
19561;DHT22;9927;47.792;10.616;2024-01-15T16:31:30;0.90;99.90
19561;DHT22;9927;47.792;10.616;2024-01-15T16:33:59;0.80;99.90
19561;DHT22;9927;47.792;10.616;2024-01-15T16:36:32;0.80;99.90
19561;DHT22;9927;47.792;10.616;2024-01-15T16:39:01;0.80;99.90
19561;DHT22;9927;47.792;10.616;2024-01-15T16:41:29;0.80;99.90
19561;DHT22;9927;47.792;10.616;2024-01-15T16:43:57;0.90;99.90
19561;DHT22;9927;47.792;10.616;2024-01-15T16:46:24;1.00;99.90
19561;DHT22;9927;47.792;10.616;2024-01-15T16:48:52;1.00;99.90
19561;DHT22;9927;47.792;10.616;2024-01-15T16:51:19;1.00;99.90
19561;DHT22;9927;47.792;10.616;2024-01-15T16:53:46;0.90;99.90
19561;DHT22;9927;47.792;10.616;2024-01-15T16:56:14;0.80;99.90
19561;DHT22;9927;47.792;10.616;2024-01-15T16:58:41;0.90;99.90
19561;DHT22;9927;47.792;10.616;2024-01-15T17:01:08;0.80;99.90
19561;DHT22;9927;47.792;10.616;2024-01-15T17:03:36;0.80;99.90
19561;DHT22;9927;47.792;10.616;2024-01-15T17:06:03;0.90;99.90
19561;DHT22;9927;47.792;10.616;2024-01-15T17:08:31;0.70;99.90
19561;DHT22;9927;47.792;10.616;2024-01-15T17:10:59;0.60;99.90
19561;DHT22;9927;47.792;10.616;2024-01-15T17:13:28;0.70;99.90
19561;DHT22;9927;47.792;10.616;2024-01-15T17:15:56;0.60;99.90
19561;DHT22;9927;47.792;10.616;2024-01-15T17:18:23;0.70;99.90
19561;DHT22;9927;47.792;10.616;2024-01-15T17:20:50;0.70;99.90
19561;DHT22;9927;47.792;10.616;2024-01-15T17:23:18;0.70;99.90
19561;DHT22;9927;47.792;10.616;2024-01-15T17:25:46;0.70;99.90
19561;DHT22;9927;47.792;10.616;2024-01-15T17:28:13;0.70;99.90
19561;DHT22;9927;47.792;10.616;2024-01-15T17:30:40;0.70;99.90
19561;DHT22;9927;47.792;10.616;2024-01-15T17:33:07;0.60;99.90
19561;DHT22;9927;47.792;10.616;2024-01-15T17:35:35;0.70;99.90
19561;DHT22;9927;47.792;10.616;2024-01-15T17:38:02;0.70;99.90
19561;DHT22;9927;47.792;10.616;2024-01-15T17:40:30;0.70;99.90
19561;DHT22;9927;47.792;10.616;2024-01-15T17:42:57;0.60;99.90
19561;DHT22;9927;47.792;10.616;2024-01-15T17:45:24;0.60;99.90
19561;DHT22;9927;47.792;10.616;2024-01-15T17:47:53;0.70;99.90
19561;DHT22;9927;47.792;10.616;2024-01-15T17:50:21;0.80;99.90
19561;DHT22;9927;47.792;10.616;2024-01-15T17:52:48;0.80;99.90
19561;DHT22;9927;47.792;10.616;2024-01-15T17:55:16;0.80;99.90
19561;DHT22;9927;47.792;10.616;2024-01-15T17:57:44;0.90;99.90
19561;DHT22;9927;47.792;10.616;2024-01-15T18:00:12;0.90;99.90
19561;DHT22;9927;47.792;10.616;2024-01-15T18:02:41;0.80;99.90
19561;DHT22;9927;47.792;10.616;2024-01-15T18:05:10;0.80;99.90
19561;DHT22;9927;47.792;10.616;2024-01-15T18:07:37;0.80;99.90
19561;DHT22;9927;47.792;10.616;2024-01-15T18:10:05;0.70;99.90
19561;DHT22;9927;47.792;10.616;2024-01-15T18:12:33;0.80;99.90
19561;DHT22;9927;47.792;10.616;2024-01-15T18:15:01;0.60;99.90
19561;DHT22;9927;47.792;10.616;2024-01-15T18:17:28;0.60;99.90
19561;DHT22;9927;47.792;10.616;2024-01-15T18:19:56;0.60;99.90
19561;DHT22;9927;47.792;10.616;2024-01-15T18:22:23;0.60;99.90
19561;DHT22;9927;47.792;10.616;2024-01-15T18:24:51;0.50;99.90
19561;DHT22;9927;47.792;10.616;2024-01-15T18:27:18;0.60;99.90
19561;DHT22;9927;47.792;10.616;2024-01-15T18:29:45;0.50;99.90
19561;DHT22;9927;47.792;10.616;2024-01-15T18:32:12;0.50;99.90
19561;DHT22;9927;47.792;10.616;2024-01-15T18:34:40;0.50;99.90
19561;DHT22;9927;47.792;10.616;2024-01-15T18:37:09;0.50;99.90
19561;DHT22;9927;47.792;10.616;2024-01-15T18:39:37;0.50;99.90
19561;DHT22;9927;47.792;10.616;2024-01-15T18:42:04;0.50;99.90
19561;DHT22;9927;47.792;10.616;2024-01-15T18:44:32;0.40;99.90
19561;DHT22;9927;47.792;10.616;2024-01-15T18:46:59;0.40;99.90
19561;DHT22;9927;47.792;10.616;2024-01-15T18:49:26;0.40;99.90
19561;DHT22;9927;47.792;10.616;2024-01-15T18:51:54;0.50;99.90
19561;DHT22;9927;47.792;10.616;2024-01-15T18:54:23;0.50;99.90
19561;DHT22;9927;47.792;10.616;2024-01-15T18:56:51;0.50;99.90
19561;DHT22;9927;47.792;10.616;2024-01-15T18:59:18;0.50;99.90
19561;DHT22;9927;47.792;10.616;2024-01-15T19:01:46;0.60;99.90
19561;DHT22;9927;47.792;10.616;2024-01-15T19:04:14;0.70;99.90
19561;DHT22;9927;47.792;10.616;2024-01-15T19:06:42;0.70;99.90
19561;DHT22;9927;47.792;10.616;2024-01-15T19:09:13;0.70;99.90
19561;DHT22;9927;47.792;10.616;2024-01-15T19:11:40;0.80;99.90
19561;DHT22;9927;47.792;10.616;2024-01-15T19:14:08;0.80;99.90
19561;DHT22;9927;47.792;10.616;2024-01-15T19:16:35;0.90;99.90
19561;DHT22;9927;47.792;10.616;2024-01-15T19:19:03;0.80;99.90
19561;DHT22;9927;47.792;10.616;2024-01-15T19:21:31;0.70;99.90
19561;DHT22;9927;47.792;10.616;2024-01-15T19:23:59;0.80;99.90
19561;DHT22;9927;47.792;10.616;2024-01-15T19:26:26;0.80;99.90
19561;DHT22;9927;47.792;10.616;2024-01-15T19:28:55;0.80;99.90
19561;DHT22;9927;47.792;10.616;2024-01-15T19:31:23;0.80;99.90
19561;DHT22;9927;47.792;10.616;2024-01-15T19:33:51;0.70;99.90
19561;DHT22;9927;47.792;10.616;2024-01-15T19:36:20;0.80;99.90
19561;DHT22;9927;47.792;10.616;2024-01-15T19:38:49;0.70;99.90
19561;DHT22;9927;47.792;10.616;2024-01-15T19:41:16;0.70;99.90
19561;DHT22;9927;47.792;10.616;2024-01-15T19:43:44;0.60;99.90
19561;DHT22;9927;47.792;10.616;2024-01-15T19:46:11;0.60;99.90
19561;DHT22;9927;47.792;10.616;2024-01-15T19:48:39;0.70;99.90
19561;DHT22;9927;47.792;10.616;2024-01-15T19:51:07;0.70;99.90
19561;DHT22;9927;47.792;10.616;2024-01-15T19:53:34;0.60;99.90
19561;DHT22;9927;47.792;10.616;2024-01-15T19:56:02;0.60;99.90
19561;DHT22;9927;47.792;10.616;2024-01-15T19:58:30;0.60;99.90
19561;DHT22;9927;47.792;10.616;2024-01-15T20:01:02;0.60;99.90
19561;DHT22;9927;47.792;10.616;2024-01-15T20:03:30;0.70;99.90